Time;durP1;ratioP1;P1;durP2;ratioP2;P2;SDS_P1;SDS_P2;PMS_P1;PMS_P2;Temp;Humidity;BMP_temperature;BMP_pressure;BME280_temperature;BME280_humidity;BME280_pressure;Samples;Min_cycle;Max_cycle;Signal;HPM_P1;HPM_P2
2024/03/02 00:00:13;;;;;;;8.63;7.07;;;9.60;99.90;;;;;;5116945;28;20412;-43
2024/03/02 00:02:45;;;;;;;7.70;6.93;;;9.50;99.90;;;;;;5098956;28;20437;-43
2024/03/02 00:05:21;;;;;;;8.73;7.93;;;9.50;1.00;;;;;;5117003;28;20520;-42
2024/03/02 00:07:55;;;;;;;7.63;6.93;;;9.50;1.00;;;;;;5116566;28;20566;-42
2024/03/02 00:10:28;;;;;;;10.00;8.97;;;9.40;1.00;;;;;;5118032;28;20421;-40
2024/03/02 00:12:54;;;;;;;8.80;8.00;;;9.40;1.00;;;;;;5100196;28;20822;-42
2024/03/02 00:15:46;;;;;;;9.23;7.97;;;9.30;99.90;;;;;;5117268;28;20448;-42
2024/03/02 00:18:14;;;;;;;7.80;7.03;;;9.30;99.90;;;;;;5098349;28;20412;-42
2024/03/02 00:20:40;;;;;;;9.93;8.97;;;9.20;99.90;;;;;;5098668;28;20839;-40
2024/03/02 00:23:07;;;;;;;9.13;8.23;;;9.20;99.90;;;;;;5097149;28;20434;-41
2024/03/02 00:25:49;;;;;;;11.50;8.30;;;9.20;1.00;;;;;;5115998;28;20425;-41
2024/03/02 00:28:16;;;;;;;10.50;9.07;;;9.10;1.00;;;;;;5114938;28;21035;-43
2024/03/02 00:31:13;;;;;;;9.00;8.20;;;9.10;1.00;;;;;;5115719;28;20425;-42
2024/03/02 00:33:43;;;;;;;8.87;7.60;;;9.10;1.00;;;;;;5115154;28;20530;-41
2024/03/02 00:36:10;;;;;;;8.80;7.90;;;9.10;1.00;;;;;;5097265;28;20556;-42
2024/03/02 00:38:46;;;;;;;8.93;7.50;;;9.10;1.00;;;;;;5097022;28;20418;-44
2024/03/02 00:41:27;;;;;;;9.23;8.10;;;9.00;1.00;;;;;;5118009;28;20421;-44
2024/03/02 00:44:06;;;;;;;9.43;8.43;;;9.00;1.00;;;;;;5121213;28;20421;-42
2024/03/02 00:46:36;;;;;;;9.33;8.20;;;9.00;1.00;;;;;;5119605;28;20467;-41
2024/03/02 00:49:04;;;;;;;9.33;8.33;;;9.00;1.00;;;;;;5119414;28;20465;-41
2024/03/02 00:51:31;;;;;;;10.00;8.17;;;9.00;1.00;;;;;;5118988;28;20437;-41
2024/03/02 00:54:04;;;;;;;10.23;9.00;;;8.90;78.10;;;;;;5119347;28;20478;-41
2024/03/02 00:56:30;;;;;;;11.23;8.93;;;8.90;99.90;;;;;;5100669;28;20552;-41
2024/03/02 00:58:56;;;;;;;9.77;8.77;;;8.90;99.90;;;;;;5118587;28;20635;-42
2024/03/02 01:01:22;;;;;;;9.27;8.23;;;8.80;99.90;;;;;;5118498;28;20853;-41
2024/03/02 01:03:48;;;;;;;11.33;9.83;;;8.80;99.90;;;;;;5119740;28;20612;-41
2024/03/02 01:06:15;;;;;;;10.77;9.67;;;8.80;99.90;;;;;;5119258;28;20470;-41
2024/03/02 01:08:41;;;;;;;13.17;10.77;;;8.80;99.90;;;;;;5119538;28;20425;-41
2024/03/02 01:11:07;;;;;;;13.93;10.73;;;8.70;1.00;;;;;;5120466;28;20421;-41
2024/03/02 01:13:32;;;;;;;14.80;11.03;;;8.70;1.00;;;;;;5120475;28;20299;-42
2024/03/02 01:15:59;;;;;;;10.70;9.60;;;8.70;1.00;;;;;;5121158;28;20211;-42
2024/03/02 01:18:24;;;;;;;12.83;11.43;;;8.70;1.00;;;;;;5102644;28;20190;-42
2024/03/02 01:20:55;;;;;;;13.30;12.00;;;8.70;1.00;;;;;;5120709;28;20807;-41
2024/03/02 01:23:22;;;;;;;12.47;10.00;;;8.70;1.00;;;;;;5102163;28;20509;-42
2024/03/02 01:25:48;;;;;;;12.77;10.67;;;8.60;1.00;;;;;;5120755;28;20429;-41
2024/03/02 01:28:14;;;;;;;11.23;10.03;;;8.60;1.00;;;;;;5120139;28;20512;-41
2024/03/02 01:30:40;;;;;;;12.40;10.20;;;8.60;1.00;;;;;;5119532;28;20186;-42
2024/03/02 01:33:06;;;;;;;11.30;10.00;;;8.60;1.00;;;;;;5119264;28;20414;-41
2024/03/02 01:35:33;;;;;;;12.20;10.90;;;8.60;1.00;;;;;;5119049;28;20503;-42
2024/03/02 01:37:58;;;;;;;12.10;10.90;;;8.60;1.00;;;;;;5118952;28;20529;-41
2024/03/02 01:40:26;;;;;;;12.70;10.30;;;8.60;1.00;;;;;;5100550;28;20505;-41
2024/03/02 01:42:53;;;;;;;13.27;10.60;;;8.60;1.00;;;;;;5118939;28;20166;-41
2024/03/02 01:45:19;;;;;;;12.30;10.10;;;8.60;3.50;;;;;;5119470;28;20394;-43
2024/03/02 01:47:45;;;;;;;13.57;11.07;;;8.60;19.40;;;;;;5120418;28;20475;-42
2024/03/02 01:50:11;;;;;;;12.13;10.90;;;8.50;26.60;;;;;;5101821;28;20565;-41
2024/03/02 01:52:37;;;;;;;14.83;12.33;;;8.50;37.10;;;;;;5119897;28;20180;-42
2024/03/02 01:55:03;;;;;;;14.73;11.90;;;8.50;26.00;;;;;;5101206;28;20440;-41
2024/03/02 01:57:29;;;;;;;11.70;10.50;;;8.50;26.40;;;;;;5101774;28;20743;-40
2024/03/02 01:59:56;;;;;;;14.10;12.60;;;8.50;30.90;;;;;;5102221;28;20426;-43
2024/03/02 02:02:21;;;;;;;14.60;11.30;;;8.50;57.50;;;;;;5119435;28;20490;-39
2024/03/02 02:04:50;;;;;;;13.07;10.87;;;8.40;83.70;;;;;;5119991;28;20524;-43
2024/03/02 02:07:15;;;;;;;13.83;11.70;;;8.40;99.90;;;;;;5120147;28;20320;-41
2024/03/02 02:09:43;;;;;;;12.07;10.33;;;8.40;99.90;;;;;;5120015;28;20536;-43
2024/03/02 02:12:09;;;;;;;12.63;11.37;;;8.40;99.90;;;;;;5119099;28;20224;-42
2024/03/02 02:14:36;;;;;;;11.27;10.17;;;8.40;99.90;;;;;;5119645;28;20470;-41
2024/03/02 02:17:02;;;;;;;12.13;10.73;;;8.30;99.90;;;;;;5101467;28;20789;-41
2024/03/02 02:19:27;;;;;;;11.77;10.57;;;8.30;99.90;;;;;;5119213;28;20520;-43
2024/03/02 02:21:53;;;;;;;15.27;11.00;;;8.30;99.90;;;;;;5100789;28;20195;-45
2024/03/02 02:24:18;;;;;;;12.73;11.27;;;8.30;99.90;;;;;;5118240;28;20232;-42
2024/03/02 02:26:44;;;;;;;12.43;11.00;;;8.30;99.90;;;;;;5119363;28;20168;-42
2024/03/02 02:29:10;;;;;;;15.27;12.60;;;8.30;99.90;;;;;;5119318;28;20183;-42
2024/03/02 02:31:42;;;;;;;14.40;11.10;;;8.20;99.90;;;;;;5119312;28;20187;-41
2024/03/02 02:34:09;;;;;;;14.27;12.47;;;8.20;99.90;;;;;;5119351;28;20198;-41
2024/03/02 02:36:40;;;;;;;13.43;11.93;;;8.20;99.90;;;;;;5119199;28;20469;-43
2024/03/02 02:39:08;;;;;;;13.30;11.07;;;8.20;99.90;;;;;;5119372;28;20701;-42
2024/03/02 02:41:33;;;;;;;14.27;11.40;;;8.20;99.90;;;;;;5084339;28;20456;-42
2024/03/02 02:43:59;;;;;;;13.17;11.73;;;8.10;99.90;;;;;;5100258;28;20835;-41
2024/03/02 02:46:24;;;;;;;12.40;10.73;;;8.10;99.90;;;;;;5117799;28;20523;-41
2024/03/02 02:48:52;;;;;;;13.30;11.50;;;8.10;99.90;;;;;;5118062;28;20172;-41
2024/03/02 02:51:18;;;;;;;13.03;10.67;;;8.10;99.90;;;;;;5118678;28;20604;-40
2024/03/02 02:53:44;;;;;;;12.10;10.80;;;8.00;99.90;;;;;;5118576;28;20405;-42
2024/03/02 02:56:10;;;;;;;12.70;11.17;;;8.00;99.90;;;;;;5099933;28;20264;-40
2024/03/02 02:58:35;;;;;;;12.80;10.80;;;8.00;99.90;;;;;;5118755;28;20191;-40
2024/03/02 03:01:01;;;;;;;14.03;11.37;;;8.00;99.90;;;;;;5099543;28;20569;-41
2024/03/02 03:03:27;;;;;;;11.60;10.37;;;8.00;99.90;;;;;;5118067;28;20155;-41
2024/03/02 03:09:14;;;;;;;12.90;9.87;;;7.90;99.90;;;;;;5116072;28;20222;-41
2024/03/02 03:11:40;;;;;;;13.40;11.20;;;7.90;99.90;;;;;;5118245;28;20422;-41
2024/03/02 03:14:05;;;;;;;10.60;9.50;;;7.90;99.90;;;;;;5118491;28;20172;-41
2024/03/02 03:16:31;;;;;;;12.10;10.80;;;7.90;99.90;;;;;;5118274;28;20267;-41
2024/03/02 03:18:57;;;;;;;15.00;10.67;;;7.90;99.90;;;;;;5118040;28;20569;-41
2024/03/02 03:21:23;;;;;;;13.00;10.80;;;7.80;99.90;;;;;;5117999;28;20180;-42
2024/03/02 03:23:48;;;;;;;12.43;10.73;;;7.80;99.90;;;;;;5117011;28;20224;-41
2024/03/02 03:26:14;;;;;;;13.67;11.87;;;7.80;99.90;;;;;;5116949;28;20802;-41
2024/03/02 03:28:40;;;;;;;11.40;10.30;;;7.80;99.90;;;;;;5116689;28;20619;-43
2024/03/02 03:31:06;;;;;;;14.43;11.23;;;7.70;99.90;;;;;;5117117;28;20180;-42
2024/03/02 03:33:31;;;;;;;13.57;10.70;;;7.70;99.90;;;;;;5117061;28;20172;-40
2024/03/02 03:35:57;;;;;;;14.70;11.87;;;7.70;99.90;;;;;;5117591;28;20525;-43
2024/03/02 03:38:23;;;;;;;12.33;11.07;;;7.70;99.90;;;;;;5117475;28;20164;-41
2024/03/02 03:40:48;;;;;;;13.13;11.57;;;7.60;99.90;;;;;;5117803;28;20908;-41
2024/03/02 03:43:14;;;;;;;12.90;10.90;;;7.60;99.90;;;;;;5118242;28;20595;-41
2024/03/02 03:45:39;;;;;;;14.57;10.70;;;7.60;99.90;;;;;;5118054;28;20235;-41
2024/03/02 03:48:05;;;;;;;11.47;10.23;;;7.60;99.90;;;;;;5100051;28;20435;-42
2024/03/02 03:50:31;;;;;;;9.00;8.10;;;7.60;99.90;;;;;;5118282;28;20484;-40
2024/03/02 03:52:57;;;;;;;11.30;10.10;;;7.60;99.90;;;;;;5118279;28;20482;-43
2024/03/02 03:55:22;;;;;;;12.70;11.30;;;7.60;99.90;;;;;;5117803;28;20208;-49
2024/03/02 03:57:48;;;;;;;12.10;10.80;;;7.50;99.90;;;;;;5118086;28;20324;-40
2024/03/02 04:00:14;;;;;;;12.40;10.37;;;7.50;99.90;;;;;;5117840;28;20176;-41
2024/03/02 04:02:39;;;;;;;11.60;10.37;;;7.50;99.90;;;;;;5117896;28;20183;-43
2024/03/02 04:05:08;;;;;;;12.03;9.80;;;7.60;99.90;;;;;;5118136;28;20432;-41
2024/03/02 04:07:39;;;;;;;11.90;10.23;;;7.50;99.90;;;;;;5117427;28;20212;-40
2024/03/02 04:10:07;;;;;;;12.30;11.00;;;7.50;99.90;;;;;;5117340;28;20508;-40
2024/03/02 04:12:34;;;;;;;12.37;11.10;;;7.50;99.90;;;;;;5117861;28;20456;-42
2024/03/02 04:15:01;;;;;;;12.77;10.77;;;7.50;99.90;;;;;;5119005;28;20505;-41
2024/03/02 04:17:27;;;;;;;12.27;10.33;;;7.50;99.90;;;;;;5104251;28;20453;-42
2024/03/02 04:19:52;;;;;;;11.73;10.53;;;7.50;1.00;;;;;;5121848;28;20397;-41
2024/03/02 04:22:18;;;;;;;12.77;10.70;;;7.50;99.90;;;;;;5121995;28;20183;-42
2024/03/02 04:24:44;;;;;;;11.80;10.00;;;7.50;1.00;;;;;;5121357;28;20474;-41
2024/03/02 04:27:09;;;;;;;11.27;9.57;;;7.50;99.90;;;;;;5121395;28;20176;-41
2024/03/02 04:29:35;;;;;;;12.70;10.00;;;7.40;99.90;;;;;;5086726;28;20184;-43
2024/03/02 04:32:00;;;;;;;10.40;8.97;;;7.50;99.90;;;;;;5121393;28;20236;-41
2024/03/02 04:34:26;;;;;;;10.70;8.87;;;7.50;99.90;;;;;;5120822;28;20214;-42
2024/03/02 04:36:52;;;;;;;11.80;10.20;;;7.50;99.90;;;;;;5120946;28;20270;-44
2024/03/02 04:39:17;;;;;;;11.70;10.47;;;7.40;99.90;;;;;;5120811;28;20179;-42
2024/03/02 04:41:43;;;;;;;10.23;9.07;;;7.40;99.90;;;;;;5102355;28;20583;-40
2024/03/02 04:44:09;;;;;;;11.63;9.67;;;7.40;99.90;;;;;;5103032;28;20190;-41
2024/03/02 04:46:35;;;;;;;11.20;10.00;;;7.40;99.90;;;;;;5103559;28;20421;-44
2024/03/02 04:49:00;;;;;;;11.27;10.07;;;7.40;99.90;;;;;;5121111;28;20187;-40
2024/03/02 04:51:26;;;;;;;12.03;10.07;;;7.40;99.90;;;;;;5121055;28;20458;-42
2024/03/02 04:53:51;;;;;;;10.13;9.13;;;7.40;99.90;;;;;;5121265;28;20266;-42
2024/03/02 04:56:39;;;;;;;10.33;8.90;;;7.40;99.90;;;;;;5120401;28;20299;-42
2024/03/02 04:59:06;;;;;;;12.37;9.60;;;7.40;99.90;;;;;;5106137;28;20379;-45
2024/03/02 05:01:32;;;;;;;10.10;9.07;;;7.40;99.90;;;;;;5120909;28;20429;-40
2024/03/02 05:03:58;;;;;;;9.97;8.63;;;7.40;99.90;;;;;;5121021;28;20704;-45
2024/03/02 05:06:24;;;;;;;13.10;9.60;;;7.40;99.90;;;;;;5121214;28;20421;-41
2024/03/02 05:08:49;;;;;;;10.87;9.63;;;7.40;99.90;;;;;;5120532;28;20231;-43
2024/03/02 05:14:16;;;;;;;10.37;9.23;;;7.30;99.90;;;;;;5089370;28;20271;-41
2024/03/02 05:16:41;;;;;;;11.20;9.53;;;7.30;99.90;;;;;;5101653;28;20469;-44
2024/03/02 05:19:07;;;;;;;11.40;10.20;;;7.30;99.90;;;;;;5119448;28;20634;-43
2024/03/02 05:21:33;;;;;;;10.27;8.13;;;7.30;99.90;;;;;;5119536;28;20171;-44
2024/03/02 05:23:59;;;;;;;10.83;9.23;;;7.30;99.90;;;;;;5101547;28;20466;-40
2024/03/02 05:26:25;;;;;;;10.73;8.90;;;7.30;99.90;;;;;;5120102;28;20719;-41
2024/03/02 05:28:51;;;;;;;10.70;9.00;;;7.30;99.90;;;;;;5120131;28;20325;-41
2024/03/02 05:31:16;;;;;;;11.93;9.50;;;7.30;99.90;;;;;;5119437;28;20180;-42
2024/03/02 05:33:42;;;;;;;9.67;8.30;;;7.30;99.90;;;;;;5120254;28;20184;-41
2024/03/02 05:36:08;;;;;;;10.50;8.57;;;7.30;99.90;;;;;;5119273;28;20257;-41
2024/03/02 05:38:37;;;;;;;8.97;8.00;;;7.30;99.90;;;;;;5120408;28;20832;-41
2024/03/02 05:41:03;;;;;;;9.80;8.63;;;7.20;99.90;;;;;;5120254;28;20501;-41
2024/03/02 05:43:29;;;;;;;10.63;8.70;;;7.20;99.90;;;;;;5120786;28;20426;-42
2024/03/02 05:45:54;;;;;;;10.80;9.70;;;7.20;99.90;;;;;;5119466;28;20500;-41
2024/03/02 05:48:20;;;;;;;10.00;8.70;;;7.20;99.90;;;;;;5119692;28;20423;-41
2024/03/02 05:50:45;;;;;;;10.60;9.13;;;7.20;99.90;;;;;;5099717;28;20182;-41
2024/03/02 05:53:11;;;;;;;12.20;8.97;;;7.10;99.90;;;;;;5117471;28;20526;-41
2024/03/02 05:55:37;;;;;;;10.90;9.37;;;7.10;99.90;;;;;;5117245;28;20497;-42
2024/03/02 06:00:31;;;;;;;10.43;8.80;;;7.10;99.90;;;;;;5117687;28;20174;-42
2024/03/02 06:02:57;;;;;;;10.13;8.50;;;7.20;99.90;;;;;;5099638;28;20414;-42
2024/03/02 06:05:22;;;;;;;10.60;9.50;;;7.20;99.90;;;;;;5118475;28;20184;-41
2024/03/02 06:07:48;;;;;;;8.93;7.73;;;7.10;99.90;;;;;;5117779;28;20603;-41
2024/03/02 06:10:14;;;;;;;10.67;8.77;;;7.10;99.90;;;;;;5117673;28;20239;-41
2024/03/02 06:12:40;;;;;;;8.40;7.47;;;7.20;99.90;;;;;;5117262;28;20638;-42
2024/03/02 06:15:06;;;;;;;8.60;7.73;;;7.20;99.90;;;;;;5116812;28;20442;-43
2024/03/02 06:17:32;;;;;;;14.20;10.90;;;7.20;99.90;;;;;;5116640;28;20477;-43
2024/03/02 06:19:58;;;;;;;15.50;12.80;;;7.20;99.90;;;;;;5116070;28;20433;-44
2024/03/02 06:22:24;;;;;;;18.57;15.97;;;7.20;99.90;;;;;;5116156;28;20827;-45
2024/03/02 06:24:51;;;;;;;16.70;14.40;;;7.20;99.90;;;;;;5116712;28;20183;-42
2024/03/02 06:27:16;;;;;;;19.07;14.70;;;7.20;99.90;;;;;;5117009;28;20527;-43
2024/03/02 06:29:42;;;;;;;16.23;14.00;;;7.20;99.90;;;;;;5115645;28;20505;-42
2024/03/02 06:32:08;;;;;;;14.13;11.90;;;7.30;99.90;;;;;;5115956;28;20186;-42
2024/03/02 06:34:34;;;;;;;14.50;11.73;;;7.40;99.90;;;;;;5115747;28;20425;-40
2024/03/02 06:36:59;;;;;;;12.10;10.80;;;7.40;99.90;;;;;;5097805;28;20595;-42
2024/03/02 06:39:25;;;;;;;11.67;10.47;;;7.50;99.90;;;;;;5113994;28;20747;-42
2024/03/02 06:41:51;;;;;;;12.63;11.20;;;7.50;99.90;;;;;;5117297;28;20446;-43
2024/03/02 06:44:17;;;;;;;11.40;10.20;;;7.60;99.90;;;;;;5099543;28;21020;-43
2024/03/02 06:46:43;;;;;;;10.80;9.70;;;7.60;99.90;;;;;;5116927;28;20532;-41
2024/03/02 06:49:10;;;;;;;10.23;9.20;;;7.70;99.90;;;;;;5099934;28;20203;-42
2024/03/02 06:51:36;;;;;;;12.27;9.20;;;7.70;99.90;;;;;;5098355;28;20183;-41
2024/03/02 06:54:02;;;;;;;12.47;10.63;;;7.80;99.90;;;;;;5116855;28;20398;-42
2024/03/02 06:56:27;;;;;;;12.57;11.13;;;7.90;99.90;;;;;;5116083;28;20739;-41
2024/03/02 06:58:53;;;;;;;11.10;10.00;;;7.90;99.90;;;;;;5117160;28;20175;-44
2024/03/02 07:01:20;;;;;;;12.63;10.50;;;7.90;99.90;;;;;;5117133;28;20232;-41
2024/03/02 07:03:46;;;;;;;10.73;9.70;;;8.00;99.90;;;;;;5117223;28;20183;-42
2024/03/02 07:06:11;;;;;;;12.67;10.77;;;8.10;99.90;;;;;;5115257;28;20414;-43
2024/03/02 07:08:37;;;;;;;12.40;10.53;;;8.30;99.90;;;;;;5115455;28;20519;-43
2024/03/02 07:11:03;;;;;;;11.73;10.50;;;8.40;99.90;;;;;;5115051;28;20195;-41
2024/03/02 07:13:28;;;;;;;13.40;11.20;;;8.60;99.90;;;;;;5115344;28;20186;-43
2024/03/02 07:18:20;;;;;;;13.57;10.60;;;9.00;44.50;;;;;;5115027;28;20231;-42
2024/03/02 07:20:45;;;;;;;12.90;11.27;;;9.10;1.00;;;;;;5114888;28;20267;-42
2024/03/02 07:23:11;;;;;;;11.00;9.90;;;9.30;1.00;;;;;;5116296;28;20259;-42
2024/03/02 07:25:36;;;;;;;12.40;11.17;;;9.40;99.90;;;;;;5098490;28;20595;-41
2024/03/02 07:28:04;;;;;;;10.93;9.80;;;9.50;1.00;;;;;;5098583;28;20589;-43
2024/03/02 07:30:29;;;;;;;12.00;10.17;;;9.50;1.00;;;;;;5116614;28;20592;-42
2024/03/02 07:32:55;;;;;;;11.10;9.83;;;9.40;99.90;;;;;;5115766;28;20418;-42
2024/03/02 07:35:22;;;;;;;9.93;8.90;;;9.40;99.90;;;;;;5097590;28;20199;-42
2024/03/02 07:37:47;;;;;;;10.30;8.63;;;9.40;99.90;;;;;;5115643;28;20242;-41
2024/03/02 07:40:14;;;;;;;9.80;7.97;;;9.40;99.90;;;;;;5114649;28;20418;-41
2024/03/02 07:42:40;;;;;;;8.40;7.50;;;9.40;99.90;;;;;;5115939;28;20271;-43
2024/03/02 07:45:06;;;;;;;9.10;7.90;;;9.50;97.90;;;;;;5115889;28;20800;-42
2024/03/02 07:47:35;;;;;;;9.77;8.77;;;9.50;20.60;;;;;;5099693;28;20439;-42
2024/03/02 07:50:01;;;;;;;8.50;7.63;;;9.60;1.00;;;;;;5095751;28;20858;-42
2024/03/02 07:52:27;;;;;;;12.03;9.83;;;9.60;1.00;;;;;;5095811;28;20430;-43
2024/03/02 07:54:52;;;;;;;12.57;10.87;;;9.60;1.00;;;;;;5094746;28;20426;-44
2024/03/02 07:57:18;;;;;;;11.27;9.43;;;9.70;1.00;;;;;;5077756;28;20200;-44
2024/03/02 07:59:43;;;;;;;11.10;10.00;;;9.80;1.00;;;;;;5077414;28;20164;-41
2024/03/02 08:02:10;;;;;;;13.13;9.50;;;10.00;1.00;;;;;;5095024;28;20176;-40
2024/03/02 08:04:36;;;;;;;10.03;8.87;;;10.20;99.90;;;;;;5077855;28;20191;-42
2024/03/02 08:07:02;;;;;;;9.53;8.53;;;10.40;1.00;;;;;;5077439;28;20523;-42
2024/03/02 08:09:28;;;;;;;10.20;8.90;;;10.70;99.90;;;;;;5077264;28;20506;-41
2024/03/02 08:11:54;;;;;;;9.00;8.10;;;11.00;1.00;;;;;;5075854;28;20528;-43
2024/03/02 08:14:19;;;;;;;8.57;7.77;;;11.20;99.90;;;;;;5094138;28;20172;-42
2024/03/02 08:16:45;;;;;;;3.37;2.40;;;11.50;1.00;;;;;;5076567;28;20215;-45
2024/03/02 08:19:11;;;;;;;18.83;2.57;;;11.90;1.00;;;;;;5091832;28;20168;-48
2024/03/02 08:21:37;;;;;;;5.27;2.73;;;14.30;99.90;;;;;;5092443;28;20422;-49
2024/03/02 08:24:03;;;;;;;3.10;2.23;;;15.60;1.00;;;;;;5091637;28;20453;-43
2024/03/02 08:26:29;;;;;;;13.37;2.70;;;16.80;1.00;;;;;;5091533;28;20188;-44
2024/03/02 08:28:55;;;;;;;8.50;3.40;;;17.70;99.90;;;;;;5093344;28;20433;-43
2024/03/02 08:31:21;;;;;;;8.20;3.10;;;18.40;1.00;;;;;;5074733;28;20524;-43
2024/03/02 08:33:46;;;;;;;5.13;2.40;;;18.90;99.90;;;;;;5092977;28;20541;-44
2024/03/02 08:36:12;;;;;;;5.30;2.60;;;19.30;1.00;;;;;;5093235;28;20273;-41
2024/03/02 08:38:38;;;;;;;3.30;2.30;;;19.60;1.00;;;;;;5094446;28;20245;-42
2024/03/02 08:41:04;;;;;;;5.67;2.50;;;20.00;1.00;;;;;;5094346;28;20176;-44
2024/03/02 08:43:30;;;;;;;6.03;2.60;;;20.30;1.00;;;;;;5077292;28;20888;-43
2024/03/02 08:45:56;;;;;;;3.10;2.27;;;20.60;99.90;;;;;;5093809;28;20426;-43
2024/03/02 08:48:21;;;;;;;2.63;2.43;;;20.80;99.90;;;;;;5093586;28;20200;-44
2024/03/02 08:50:47;;;;;;;2.20;1.80;;;21.00;99.90;;;;;;5093797;28;20715;-42
2024/03/02 08:53:13;;;;;;;3.60;3.30;;;21.30;99.90;;;;;;5093438;28;20227;-42
2024/03/02 08:55:38;;;;;;;3.50;2.60;;;21.50;99.90;;;;;;5092802;28;20168;-44
2024/03/02 08:58:04;;;;;;;3.60;2.40;;;21.70;99.90;;;;;;5093461;28;20461;-43
2024/03/02 09:00:30;;;;;;;2.60;2.20;;;21.80;99.90;;;;;;5094669;28;20226;-44
2024/03/02 09:02:55;;;;;;;3.00;2.10;;;22.00;99.90;;;;;;5097834;28;20177;-43
2024/03/02 09:05:21;;;;;;;3.23;2.20;;;22.20;99.90;;;;;;5097435;28;20554;-44
2024/03/02 09:07:47;;;;;;;3.10;2.43;;;22.40;99.90;;;;;;5097084;28;20178;-46
2024/03/02 09:10:14;;;;;;;5.00;2.60;;;22.60;99.90;;;;;;5095847;28;20250;-42
2024/03/02 09:12:39;;;;;;;3.27;2.50;;;22.80;99.90;;;;;;5096065;28;20177;-42
2024/03/02 09:15:09;;;;;;;4.23;2.37;;;23.00;99.90;;;;;;5097200;28;20422;-45
2024/03/02 09:17:34;;;;;;;4.00;3.20;;;23.30;99.90;;;;;;5096998;28;20223;-46
2024/03/02 09:20:00;;;;;;;3.50;3.20;;;23.60;99.90;;;;;;5097424;28;20782;-41
2024/03/02 09:22:26;;;;;;;3.50;2.10;;;23.90;99.90;;;;;;5098405;28;20198;-46
2024/03/02 09:24:51;;;;;;;4.70;3.10;;;24.20;99.90;;;;;;5096655;28;20489;-45
2024/03/02 09:27:17;;;;;;;2.53;2.33;;;24.50;99.90;;;;;;5097492;28;20188;-46
2024/03/02 09:29:43;;;;;;;3.80;2.83;;;24.70;99.90;;;;;;5097922;28;20267;-46
2024/03/02 09:32:11;;;;;;;9.20;3.20;;;25.00;99.90;;;;;;5112906;28;20191;-44
2024/03/02 09:34:37;;;;;;;5.20;4.00;;;25.20;99.90;;;;;;5118553;28;20176;-44
2024/03/02 09:37:04;;;;;;;4.90;4.30;;;25.30;99.90;;;;;;5117647;28;21086;-45
2024/03/02 09:39:30;;;;;;;7.27;3.70;;;25.40;99.90;;;;;;5117397;28;20184;-45
2024/03/02 09:41:55;;;;;;;8.30;4.40;;;25.60;99.90;;;;;;5116297;28;20972;-48
2024/03/02 09:44:22;;;;;;;4.87;3.30;;;25.80;99.90;;;;;;5116816;28;20456;-47
2024/03/02 09:46:51;;;;;;;4.37;3.27;;;26.00;99.90;;;;;;5116520;28;20172;-44
2024/03/02 09:49:16;;;;;;;4.40;3.40;;;26.30;99.90;;;;;;5098145;28;20421;-46
2024/03/02 09:51:47;;;;;;;3.60;3.30;;;26.50;99.90;;;;;;5115593;28;20792;-45
2024/03/02 09:54:13;;;;;;;3.13;2.83;;;26.70;99.90;;;;;;5114560;28;20263;-43
2024/03/02 09:56:39;;;;;;;3.83;3.20;;;26.90;99.90;;;;;;5115132;28;20639;-44
2024/03/02 09:59:05;;;;;;;11.53;3.57;;;27.10;99.90;;;;;;5115605;28;20644;-43
2024/03/02 10:01:31;;;;;;;5.77;3.20;;;27.40;99.90;;;;;;5116697;28;20429;-45
2024/03/02 10:03:59;;;;;;;3.30;2.80;;;27.40;99.90;;;;;;5116769;28;20526;-43
2024/03/02 10:06:26;;;;;;;3.87;3.50;;;27.60;99.90;;;;;;5116720;28;20410;-44
2024/03/02 10:08:53;;;;;;;3.20;2.90;;;27.80;99.90;;;;;;5116418;28;20737;-47
2024/03/02 10:11:29;;;;;;;3.47;3.10;;;28.00;99.90;;;;;;5099320;28;20521;-46
2024/03/02 10:14:13;;;;;;;3.30;2.63;;;28.10;99.90;;;;;;5117762;28;20421;-48
2024/03/02 10:16:39;;;;;;;2.53;2.03;;;28.40;99.90;;;;;;5098388;28;20538;-47
2024/03/02 10:19:24;;;;;;;2.93;2.63;;;28.60;99.90;;;;;;5116454;28;20857;-47
2024/03/02 10:21:58;;;;;;;2.23;2.03;;;28.90;99.90;;;;;;5116687;28;20407;-45
2024/03/02 10:24:23;;;;;;;2.70;2.40;;;29.10;99.90;;;;;;5099858;28;20444;-44
2024/03/02 10:26:51;;;;;;;1.83;1.47;;;29.30;99.90;;;;;;5117303;28;20488;-49
2024/03/02 10:29:17;;;;;;;2.47;1.77;;;29.00;99.90;;;;;;5115494;28;20693;-43
2024/03/02 10:31:46;;;;;;;2.13;1.40;;;29.00;99.90;;;;;;5115638;28;20437;-48
2024/03/02 10:34:13;;;;;;;1.87;1.70;;;29.10;99.90;;;;;;5115964;28;20214;-45
2024/03/02 10:36:41;;;;;;;5.43;2.07;;;29.20;99.90;;;;;;5116281;28;20475;-46
2024/03/02 10:39:08;;;;;;;1.73;1.60;;;29.20;99.90;;;;;;5116189;28;20417;-47
2024/03/02 10:41:38;;;;;;;2.10;1.83;;;29.40;99.90;;;;;;5116161;28;20404;-45
2024/03/02 10:44:07;;;;;;;3.83;2.50;;;29.50;99.90;;;;;;5097874;28;20828;-45
2024/03/02 10:46:34;;;;;;;1.57;1.40;;;29.80;99.90;;;;;;5115401;28;20464;-46
2024/03/02 10:49:02;;;;;;;1.93;1.43;;;30.10;99.90;;;;;;5114928;28;20452;-43
2024/03/02 10:51:31;;;;;;;2.37;1.63;;;30.40;99.90;;;;;;5113781;28;20388;-46
2024/03/02 10:54:03;;;;;;;1.57;1.47;;;30.50;99.90;;;;;;5114433;28;20409;-44
2024/03/02 10:56:33;;;;;;;2.63;1.70;;;30.70;99.90;;;;;;5115650;28;20846;-44
2024/03/02 10:59:06;;;;;;;1.43;1.23;;;30.80;99.90;;;;;;5097664;28;20433;-47
2024/03/02 11:01:33;;;;;;;2.00;1.37;;;31.00;99.90;;;;;;5115412;28;20418;-45
2024/03/02 11:04:00;;;;;;;1.70;1.20;;;31.30;99.90;;;;;;5097326;28;20408;-45
2024/03/02 11:06:28;;;;;;;1.70;1.30;;;31.40;99.90;;;;;;5098003;28;20462;-47
2024/03/02 11:08:58;;;;;;;2.60;1.50;;;31.50;99.90;;;;;;5115211;28;20971;-45
2024/03/02 11:11:30;;;;;;;1.30;1.00;;;31.60;99.90;;;;;;5098148;28;20422;-44
2024/03/02 11:13:59;;;;;;;1.20;0.93;;;31.50;99.90;;;;;;5098223;28;20417;-43
2024/03/02 11:16:39;;;;;;;1.33;1.00;;;31.50;99.90;;;;;;5115199;28;20517;-46
2024/03/02 11:19:13;;;;;;;2.13;1.20;;;31.60;99.90;;;;;;5114738;28;20421;-43
2024/03/02 11:21:40;;;;;;;1.93;1.10;;;31.90;99.90;;;;;;5115373;28;20490;-47
2024/03/02 11:24:24;;;;;;;1.50;1.00;;;32.10;99.90;;;;;;5096875;28;20777;-47
2024/03/02 11:26:53;;;;;;;2.00;1.60;;;32.40;99.90;;;;;;5114507;28;20473;-48
2024/03/02 11:29:38;;;;;;;1.60;1.20;;;32.50;99.90;;;;;;5116030;28;20437;-44
2024/03/02 11:32:05;;;;;;;2.10;1.90;;;32.80;99.90;;;;;;5096778;28;20737;-46
2024/03/02 11:34:31;;;;;;;1.63;1.53;;;33.00;99.90;;;;;;5115327;28;20857;-44
2024/03/02 11:36:58;;;;;;;2.00;1.70;;;33.10;99.90;;;;;;5114497;28;20400;-44
2024/03/02 11:39:25;;;;;;;3.70;3.40;;;32.90;99.90;;;;;;5114600;28;20441;-45
2024/03/02 11:41:51;;;;;;;3.60;3.30;;;32.50;99.90;;;;;;5115091;28;20478;-46
2024/03/02 11:44:17;;;;;;;4.33;3.93;;;32.30;99.90;;;;;;5113706;28;20396;-43
2024/03/02 11:46:45;;;;;;;3.77;3.27;;;32.00;99.90;;;;;;5096619;28;20271;-46
2024/03/02 11:49:15;;;;;;;2.13;1.90;;;31.90;99.90;;;;;;5096531;28;20195;-46
2024/03/02 11:51:53;;;;;;;2.40;2.17;;;31.90;99.90;;;;;;5114348;28;20449;-46
2024/03/02 11:54:19;;;;;;;3.20;2.90;;;32.00;99.90;;;;;;5097884;28;20661;-42
2024/03/02 11:56:45;;;;;;;5.40;5.00;;;32.20;99.90;;;;;;5116109;28;20470;-43
2024/03/02 11:59:11;;;;;;;3.80;3.50;;;32.40;99.90;;;;;;5097152;28;20461;-44
2024/03/02 12:01:48;;;;;;;2.70;2.50;;;32.60;99.90;;;;;;5098662;28;20453;-44
2024/03/02 12:04:28;;;;;;;2.10;1.90;;;32.70;99.90;;;;;;5082119;28;20513;-42
2024/03/02 12:07:04;;;;;;;5.20;4.80;;;32.90;99.90;;;;;;5081060;28;20468;-43
2024/03/02 12:09:30;;;;;;;3.17;2.97;;;33.30;99.90;;;;;;5091136;28;20596;-43
2024/03/02 12:12:06;;;;;;;2.20;2.00;;;33.50;99.90;;;;;;5092265;28;20410;-45
2024/03/02 12:14:33;;;;;;;1.63;1.50;;;33.80;99.90;;;;;;5093877;28;20453;-44
2024/03/02 12:16:59;;;;;;;2.80;2.60;;;34.30;99.90;;;;;;5093236;28;20426;-45
2024/03/02 12:19:26;;;;;;;1.77;1.60;;;34.30;99.90;;;;;;5094804;28;20422;-47
2024/03/02 12:21:52;;;;;;;1.70;1.33;;;34.70;99.90;;;;;;5093463;28;20523;-45
2024/03/02 12:24:18;;;;;;;1.53;1.30;;;34.90;99.90;;;;;;5093971;28;20432;-45
2024/03/02 12:26:44;;;;;;;1.47;1.10;;;34.80;99.90;;;;;;5094192;28;20470;-44
2024/03/02 12:29:10;;;;;;;2.07;1.60;;;34.90;99.90;;;;;;5094431;28;20457;-46
2024/03/02 12:31:36;;;;;;;1.70;1.40;;;35.20;99.90;;;;;;5094463;28;20841;-49
2024/03/02 12:34:03;;;;;;;1.60;1.37;;;35.60;99.90;;;;;;5094683;28;20398;-45
2024/03/02 12:36:28;;;;;;;1.50;1.30;;;36.00;99.90;;;;;;5094043;28;20490;-43
2024/03/02 12:38:55;;;;;;;1.40;1.10;;;36.30;99.90;;;;;;5096562;28;20440;-45
2024/03/02 12:41:21;;;;;;;2.23;1.40;;;35.60;99.90;;;;;;5097038;28;20271;-47
2024/03/02 12:43:46;;;;;;;1.73;1.33;;;35.20;99.90;;;;;;5098053;28;20529;-45
2024/03/02 12:46:13;;;;;;;2.97;1.30;;;35.10;99.90;;;;;;5096756;28;20507;-45
2024/03/02 12:48:42;;;;;;;1.60;1.40;;;35.20;99.90;;;;;;5095216;28;20184;-45
2024/03/02 12:51:07;;;;;;;2.17;1.40;;;35.30;99.90;;;;;;5093970;28;20472;-45
2024/03/02 12:53:33;;;;;;;1.60;1.40;;;35.70;99.90;;;;;;5094391;28;20987;-46
2024/03/02 12:55:58;;;;;;;1.57;1.27;;;35.90;99.90;;;;;;5095420;28;20179;-48